createdAt,value
2022-10-11T00:01:17.275Z,99810.69
2022-10-11T00:03:45.584Z,99806.97
2022-10-11T00:06:14.045Z,99805.22
2022-10-11T00:08:42.675Z,99804.41
2022-10-11T00:11:12.705Z,99796.38
2022-10-11T00:13:41.210Z,99805.00
2022-10-11T00:16:11.821Z,99789.19
2022-10-11T00:18:40.787Z,99792.72
2022-10-11T00:21:12.957Z,99800.00
2022-10-11T00:23:42.567Z,99790.50
2022-10-11T00:26:23.230Z,99791.84
2022-10-11T00:29:01.615Z,99786.34
2022-10-11T00:31:41.564Z,99782.75
2022-10-11T00:34:22.569Z,99788.66
2022-10-11T00:37:01.687Z,99782.47
2022-10-11T00:39:42.192Z,99779.78
2022-10-11T00:42:21.960Z,99772.34
2022-10-11T00:45:33.822Z,99774.44
2022-10-11T00:48:21.162Z,99774.50
2022-10-11T00:51:04.176Z,99775.16
2022-10-11T00:53:43.653Z,99780.31
2022-10-11T00:56:27.882Z,99771.41
2022-10-11T00:59:16.928Z,99772.22
2022-10-11T01:01:57.643Z,99773.03
2022-10-11T01:04:39.022Z,99766.13
2022-10-11T01:07:21.255Z,99767.59
2022-10-11T01:10:01.280Z,99768.19
2022-10-11T01:12:49.534Z,99768.81
2022-10-11T01:15:35.932Z,99763.47
2022-10-11T01:18:25.732Z,99764.53
2022-10-11T01:21:13.307Z,99759.13
2022-10-11T01:24:29.686Z,99754.38
2022-10-11T01:27:30.755Z,99759.00
2022-10-11T01:30:26.866Z,99753.97
2022-10-11T01:33:19.828Z,99749.50
2022-10-11T01:36:12.329Z,99749.63
2022-10-11T01:38:58.535Z,99749.53
2022-10-11T01:41:47.172Z,99744.38
2022-10-11T01:44:28.163Z,99751.47
2022-10-11T01:47:08.608Z,99745.38
2022-10-11T01:49:54.803Z,99747.00
2022-10-11T01:52:40.911Z,99744.50
2022-10-11T01:55:31.413Z,99744.47
2022-10-11T01:58:21.046Z,99747.88
2022-10-11T02:01:09.688Z,99740.88
2022-10-11T02:04:00.895Z,99741.69
2022-10-11T02:06:49.716Z,99753.84
2022-10-11T02:09:37.057Z,99750.47
2022-10-11T02:12:24.740Z,99749.75
2022-10-11T02:15:10.133Z,99756.00
2022-10-11T02:17:55.148Z,99756.09
2022-10-11T02:20:40.906Z,99738.53
2022-10-11T02:23:25.145Z,99751.94
2022-10-11T02:26:09.914Z,99741.66
2022-10-11T02:28:54.169Z,99749.59
2022-10-11T02:31:35.840Z,99743.34
2022-10-11T02:34:20.056Z,99749.72
2022-10-11T02:37:05.506Z,99743.50
2022-10-11T02:39:49.787Z,99742.50
2022-10-11T02:42:36.533Z,99739.84
2022-10-11T02:45:20.962Z,99747.78
2022-10-11T02:48:01.547Z,99746.81
2022-10-11T02:50:43.397Z,99748.50
2022-10-11T02:53:23.862Z,99750.00
2022-10-11T02:56:06.315Z,99743.84
2022-10-11T02:58:47.208Z,99744.88
2022-10-11T03:01:27.285Z,99750.50
2022-10-11T03:04:07.325Z,99748.41
2022-10-11T03:06:47.574Z,99740.22
2022-10-11T03:09:28.494Z,99744.47
2022-10-11T03:12:08.993Z,99747.81
2022-10-11T03:14:49.813Z,99748.81
2022-10-11T03:17:36.577Z,99747.75
2022-10-11T03:20:18.433Z,99752.00
2022-10-11T03:22:58.766Z,99748.03
2022-10-11T03:25:38.625Z,99757.88
2022-10-11T03:28:18.528Z,99761.13
2022-10-11T03:30:58.613Z,99748.94
2022-10-11T03:33:38.657Z,99757.50
2022-10-11T03:36:18.964Z,99760.78
2022-10-11T03:39:00.511Z,99745.47
2022-10-11T03:41:39.337Z,99745.97
2022-10-11T03:44:20.481Z,99743.84
2022-10-11T03:46:58.928Z,99751.56
2022-10-11T03:49:43.424Z,99748.06
2022-10-11T03:52:24.789Z,99747.13
2022-10-11T03:55:04.901Z,99745.28
2022-10-11T03:57:44.334Z,99745.97
2022-10-11T04:00:24.240Z,99742.28
2022-10-11T04:03:04.368Z,99743.13
2022-10-11T04:05:45.649Z,99741.25
2022-10-11T04:08:43.711Z,99734.97
2022-10-11T04:11:22.981Z,99734.13
2022-10-11T04:14:02.623Z,99731.44
2022-10-11T04:16:43.772Z,99733.28
2022-10-11T04:19:23.546Z,99734.13
2022-10-11T04:22:03.523Z,99734.13
2022-10-11T04:24:43.244Z,99728.78
2022-10-11T04:27:22.970Z,99735.75
2022-10-11T04:30:02.834Z,99733.09
2022-10-11T04:32:42.509Z,99741.09
2022-10-11T04:35:22.334Z,99741.09
2022-10-11T04:38:01.211Z,99743.63
2022-10-11T04:40:41.993Z,99746.41
2022-10-11T04:43:20.477Z,99742.91
2022-10-11T04:45:58.681Z,99738.50
2022-10-11T04:48:38.357Z,99752.41
2022-10-11T04:51:18.146Z,99750.66
2022-10-11T04:53:59.822Z,99752.41
2022-10-11T04:56:39.188Z,99743.53
2022-10-11T04:59:17.698Z,99745.91
2022-10-11T05:01:57.525Z,99745.69
2022-10-11T05:04:37.214Z,99748.94
2022-10-11T05:07:16.871Z,99746.19
2022-10-11T05:09:56.664Z,99751.31
2022-10-11T05:12:36.411Z,99751.16
2022-10-11T05:15:16.407Z,99758.16
2022-10-11T05:17:56.060Z,99752.81
2022-10-11T05:20:35.849Z,99751.22
2022-10-11T05:23:17.038Z,99751.16
2022-10-11T05:25:57.193Z,99764.38
2022-10-11T05:28:35.923Z,99764.44
2022-10-11T05:31:17.814Z,99753.84
2022-10-11T05:33:58.080Z,99756.59
2022-10-11T05:36:38.335Z,99763.63
2022-10-11T05:39:18.948Z,99760.97
2022-10-11T05:42:00.945Z,99762.69
2022-10-11T05:44:42.211Z,99771.63
2022-10-11T05:47:21.904Z,99781.34
2022-10-11T05:50:01.638Z,99776.00
2022-10-11T05:52:41.557Z,99778.44
2022-10-11T05:55:22.257Z,99784.44
2022-10-11T05:58:04.080Z,99784.00
2022-10-11T06:00:44.123Z,99789.25
2022-10-11T06:03:25.211Z,99796.75
2022-10-11T06:06:06.151Z,99802.56
2022-10-11T06:08:46.036Z,99807.25
2022-10-11T06:11:28.594Z,99798.91
2022-10-11T06:14:08.288Z,99807.38
2022-10-11T06:17:16.565Z,99812.34
2022-10-11T06:19:55.007Z,99806.00
2022-10-11T06:22:49.059Z,99812.94
2022-10-11T06:25:42.448Z,99812.16
2022-10-11T06:28:37.683Z,99817.69
2022-10-11T06:31:32.780Z,99818.81
2022-10-11T06:34:26.981Z,99817.63
2022-10-11T06:37:26.887Z,99824.78
2022-10-11T06:40:26.015Z,99834.03
2022-10-11T06:43:05.617Z,99827.50
2022-10-11T06:45:44.104Z,99836.44
2022-10-11T06:48:51.250Z,99834.06
2022-10-11T06:51:48.466Z,99836.50
2022-10-11T06:54:49.112Z,99842.81
2022-10-11T06:57:29.032Z,99840.84
2022-10-11T07:00:29.179Z,99844.22
2022-10-11T07:03:22.322Z,99841.63
2022-10-11T07:06:19.190Z,99844.97
2022-10-11T07:09:24.393Z,99846.50
2022-10-11T07:12:20.983Z,99854.56
2022-10-11T07:15:18.877Z,99859.91
2022-10-11T07:18:16.063Z,99861.44
2022-10-11T07:20:54.976Z,99866.69
2022-10-11T07:23:57.786Z,99872.34
2022-10-11T07:26:38.195Z,99865.38
2022-10-11T07:29:42.463Z,99872.19
2022-10-11T07:32:39.401Z,99879.75
2022-10-11T07:35:45.931Z,99877.06
2022-10-11T07:38:47.558Z,99867.13
2022-10-11T07:41:45.360Z,99869.78
2022-10-11T07:44:54.769Z,99879.00
2022-10-11T07:47:52.545Z,99880.84
2022-10-11T07:50:51.413Z,99876.22
2022-10-11T07:53:46.253Z,99879.44
2022-10-11T07:56:41.108Z,99890.25
2022-10-11T07:59:34.828Z,99884.47
2022-10-11T08:02:29.025Z,99884.63
2022-10-11T08:05:08.817Z,99878.91
2022-10-11T08:08:06.786Z,99888.28
2022-10-11T08:11:39.325Z,99889.63
2022-10-11T08:14:36.691Z,99882.72
2022-10-11T08:17:34.259Z,99889.88
2022-10-11T08:20:33.190Z,99887.75
2022-10-11T08:23:46.298Z,99893.63
2022-10-11T08:26:41.719Z,99891.00
2022-10-11T08:29:20.265Z,99890.44
2022-10-11T08:32:14.715Z,99893.16
2022-10-11T08:35:12.496Z,99896.44
2022-10-11T08:38:09.592Z,99891.72
2022-10-11T08:40:50.711Z,99896.44
2022-10-11T08:43:52.903Z,99893.81
2022-10-11T08:46:24.843Z,99897.38
2022-10-11T08:48:53.953Z,99899.41
2022-10-11T08:51:28.022Z,99890.47
2022-10-11T08:54:07.363Z,99896.28
2022-10-11T08:56:39.844Z,99895.28
2022-10-11T08:59:32.354Z,99901.16
2022-10-11T09:02:13.243Z,99903.00
2022-10-11T09:04:41.731Z,99906.44
2022-10-11T09:07:20.385Z,99905.03
2022-10-11T09:10:02.255Z,99905.69
2022-10-11T09:12:43.957Z,99911.41
2022-10-11T09:15:31.105Z,99897.38
2022-10-11T09:18:19.404Z,99901.56
2022-10-11T09:20:57.387Z,99893.09
2022-10-11T09:23:41.431Z,99900.56
2022-10-11T09:26:16.083Z,99907.44
2022-10-11T09:29:00.986Z,99906.97
2022-10-11T09:31:32.593Z,99906.91
2022-10-11T09:34:11.446Z,99905.59
2022-10-11T09:36:45.985Z,99902.56
2022-10-11T09:39:28.860Z,99903.94
2022-10-11T09:42:02.283Z,99898.94
2022-10-11T09:44:36.782Z,99905.97
2022-10-11T09:47:07.338Z,99901.69
2022-10-11T09:49:41.663Z,99905.13
2022-10-11T09:52:17.649Z,99909.94
2022-10-11T09:54:49.887Z,99918.59
2022-10-11T09:57:23.283Z,99916.78
2022-10-11T10:00:03.047Z,99917.72
2022-10-11T10:02:43.979Z,99912.53
2022-10-11T10:05:21.937Z,99913.09
2022-10-11T10:08:05.096Z,99906.75
2022-10-11T10:10:40.116Z,99918.56
2022-10-11T10:13:21.859Z,99920.09
2022-10-11T10:15:53.674Z,99925.59
2022-10-11T10:18:27.233Z,99924.75
2022-10-11T10:20:59.526Z,99914.91
2022-10-11T10:23:30.812Z,99918.91
2022-10-11T10:26:12.663Z,99909.66
2022-10-11T10:28:56.881Z,99922.75
2022-10-11T10:31:30.698Z,99921.69
2022-10-11T10:34:01.002Z,99919.47
2022-10-11T10:36:35.081Z,99915.34
2022-10-11T10:39:11.278Z,99917.44
2022-10-11T10:41:39.956Z,99913.34
2022-10-11T10:44:11.644Z,99907.78
2022-10-11T10:46:54.816Z,99913.94
2022-10-11T10:52:42.934Z,99918.50
2022-10-11T10:55:22.915Z,99908.28
2022-10-11T10:58:06.209Z,99909.88
2022-10-11T11:00:42.132Z,99900.88
2022-10-11T11:03:21.946Z,99902.16
2022-10-11T11:05:59.303Z,99906.81
2022-10-11T11:08:46.633Z,99889.00
2022-10-11T11:11:33.535Z,99897.25
2022-10-11T11:14:11.081Z,99889.06
2022-10-11T11:16:48.596Z,99896.50
2022-10-11T11:19:33.657Z,99899.94
2022-10-11T11:22:11.016Z,99902.00
2022-10-11T11:24:53.799Z,99902.00
2022-10-11T11:27:39.172Z,99898.84
2022-10-11T11:30:13.241Z,99901.59
2022-10-11T11:32:53.815Z,99905.09
2022-10-11T11:35:28.942Z,99893.91
2022-10-11T11:38:06.531Z,99898.25
2022-10-11T11:40:40.722Z,99896.25
2022-10-11T11:43:21.009Z,99886.25
2022-10-11T11:45:53.784Z,99889.91
2022-10-11T11:48:24.790Z,99881.78
2022-10-11T11:51:02.368Z,99886.47
2022-10-11T11:53:51.172Z,99874.41
2022-10-11T11:56:28.768Z,99878.91
2022-10-11T11:59:04.500Z,99876.34
2022-10-11T12:01:41.730Z,99875.03
2022-10-11T12:04:20.310Z,99877.75
2022-10-11T12:07:15.422Z,99877.88
2022-10-11T12:09:50.466Z,99879.38
2022-10-11T12:12:30.739Z,99875.34
2022-10-11T12:15:22.519Z,99877.84
2022-10-11T12:18:07.247Z,99886.31
2022-10-11T12:20:39.670Z,99887.66
2022-10-11T12:23:43.462Z,99891.63
2022-10-11T12:26:34.032Z,99885.06
2022-10-11T12:29:06.399Z,99889.69
2022-10-11T12:31:36.888Z,99891.44
2022-10-11T12:34:21.013Z,99880.59
2022-10-11T12:36:51.055Z,99884.75
2022-10-11T12:39:46.648Z,99891.69
2022-10-11T12:42:30.017Z,99887.47
2022-10-11T12:45:32.378Z,99887.97
2022-10-11T12:48:12.777Z,99881.38
2022-10-11T12:50:51.385Z,99877.28
2022-10-11T12:53:36.143Z,99875.53
2022-10-11T12:56:10.636Z,99867.22
2022-10-11T12:58:42.099Z,99868.28
2022-10-11T13:01:20.681Z,99878.00
2022-10-11T13:04:07.793Z,99873.44
2022-10-11T13:06:45.342Z,99871.13
2022-10-11T13:09:21.773Z,99867.06
2022-10-11T13:11:53.797Z,99868.09
2022-10-11T13:14:27.241Z,99865.59
2022-10-11T13:17:00.510Z,99866.97
2022-10-11T13:19:30.087Z,99859.47
2022-10-11T13:22:01.415Z,99873.63
2022-10-11T13:24:37.121Z,99872.22
2022-10-11T13:27:07.561Z,99873.13
2022-10-11T13:29:41.299Z,99869.44
2022-10-11T13:32:16.410Z,99869.91
2022-10-11T13:34:50.340Z,99873.69
2022-10-11T13:37:21.716Z,99872.03
2022-10-11T13:39:53.888Z,99876.00
2022-10-11T13:42:28.355Z,99881.59
2022-10-11T13:44:59.808Z,99873.88
2022-10-11T13:47:31.753Z,99873.31
2022-10-11T13:50:09.196Z,99874.50
2022-10-11T13:52:51.206Z,99868.59
2022-10-11T13:55:26.078Z,99874.00
2022-10-11T13:57:55.984Z,99869.28
2022-10-11T14:00:37.728Z,99875.44
2022-10-11T14:03:17.114Z,99865.44
2022-10-11T14:05:54.821Z,99872.34
2022-10-11T14:08:31.965Z,99866.78
2022-10-11T14:11:06.093Z,99878.16
2022-10-11T14:13:37.783Z,99880.63
2022-10-11T14:16:10.333Z,99874.09
2022-10-11T14:18:46.025Z,99870.06
2022-10-11T14:21:33.756Z,99875.75
2022-10-11T14:24:05.141Z,99870.16
2022-10-11T14:26:36.295Z,99865.56
2022-10-11T14:29:09.603Z,99872.38
2022-10-11T14:31:42.290Z,99864.03
2022-10-11T14:34:19.161Z,99870.44
2022-10-11T14:36:48.844Z,99877.56
2022-10-11T14:39:21.040Z,99870.38
2022-10-11T14:41:50.384Z,99873.72
2022-10-11T14:44:20.351Z,99870.97
2022-10-11T14:46:54.349Z,99873.09
2022-10-11T14:49:26.104Z,99871.09
2022-10-11T14:51:56.988Z,99872.66
2022-10-11T14:54:29.226Z,99885.16
2022-10-11T14:57:04.882Z,99871.78
2022-10-11T14:59:37.133Z,99874.56
2022-10-11T15:02:12.255Z,99877.00
2022-10-11T15:04:40.991Z,99876.81
2022-10-11T15:07:09.449Z,99880.22
2022-10-11T15:09:38.532Z,99875.38
2022-10-11T15:12:07.065Z,99872.44
2022-10-11T15:14:35.510Z,99873.81
2022-10-11T15:17:04.529Z,99869.72
2022-10-11T15:19:34.362Z,99871.97
2022-10-11T15:22:05.998Z,99877.09
2022-10-11T15:24:34.748Z,99877.66
2022-10-11T15:27:03.211Z,99874.81
2022-10-11T15:29:31.879Z,99880.81
2022-10-11T15:32:00.662Z,99879.53
2022-10-11T15:34:29.296Z,99886.81
2022-10-11T15:36:59.007Z,99888.88
2022-10-11T15:39:31.532Z,99882.28
2022-10-11T15:42:00.664Z,99878.28
2022-10-11T15:44:29.455Z,99879.75
2022-10-11T15:46:58.672Z,99877.94
2022-10-11T15:49:27.428Z,99883.13
2022-10-11T15:51:55.923Z,99879.47
2022-10-11T15:54:25.893Z,99878.44
2022-10-11T15:56:54.849Z,99875.72
2022-10-11T15:59:23.384Z,99879.59
2022-10-11T16:01:52.223Z,99880.47
2022-10-11T16:04:20.830Z,99878.69
2022-10-11T16:06:49.404Z,99889.09
2022-10-11T16:09:20.278Z,99891.38
2022-10-11T16:11:50.354Z,99893.03
2022-10-11T16:14:19.283Z,99892.81
2022-10-11T16:16:47.782Z,99899.03
2022-10-11T16:19:16.669Z,99900.75
2022-10-11T16:21:45.475Z,99897.06
2022-10-11T16:24:14.372Z,99903.97
2022-10-11T16:26:43.343Z,99904.88
2022-10-11T16:29:13.715Z,99904.13
2022-10-11T16:31:42.157Z,99915.84
2022-10-11T16:34:10.969Z,99916.75
2022-10-11T16:36:42.528Z,99924.91
2022-10-11T16:39:14.197Z,99912.84
2022-10-11T16:41:43.153Z,99924.22
2022-10-11T16:44:16.896Z,99918.78
2022-10-11T16:46:48.249Z,99927.88
2022-10-11T16:49:18.509Z,99918.84
2022-10-11T16:51:47.250Z,99919.19
2022-10-11T16:54:20.388Z,99927.16
2022-10-11T16:56:49.632Z,99922.94
2022-10-11T16:59:20.689Z,99925.53
2022-10-11T17:01:49.249Z,99921.69
2022-10-11T17:04:18.118Z,99919.13
2022-10-11T17:06:46.693Z,99926.94
2022-10-11T17:09:16.206Z,99926.03
2022-10-11T17:11:45.077Z,99929.56
2022-10-11T17:14:14.074Z,99935.44
2022-10-11T17:16:44.386Z,99938.84
2022-10-11T17:19:15.609Z,99939.09
2022-10-11T17:21:44.201Z,99940.69
2022-10-11T17:24:13.107Z,99939.78
2022-10-11T17:26:41.717Z,99943.59
2022-10-11T17:29:15.777Z,99949.81
2022-10-11T17:31:49.257Z,99954.25
2022-10-11T17:34:20.456Z,99957.72
2022-10-11T17:36:49.824Z,99948.97
2022-10-11T17:39:20.860Z,99953.53
2022-10-11T17:41:49.998Z,99960.56
2022-10-11T17:44:19.348Z,99950.91
2022-10-11T17:46:50.680Z,99953.38
2022-10-11T17:49:20.063Z,99951.44
2022-10-11T17:51:48.743Z,99956.41
2022-10-11T17:54:17.824Z,99958.94
2022-10-11T17:56:46.598Z,99955.97
2022-10-11T17:59:22.187Z,99952.75
2022-10-11T18:01:51.995Z,99963.31
2022-10-11T18:04:21.932Z,99957.34
2022-10-11T18:06:50.509Z,99952.72
2022-10-11T18:09:19.717Z,99954.50
2022-10-11T18:11:49.093Z,99963.84
2022-10-11T18:14:18.468Z,99952.34
2022-10-11T18:16:47.768Z,99959.19
2022-10-11T18:19:17.869Z,99964.28
2022-10-11T18:21:46.440Z,99963.19
2022-10-11T18:24:16.523Z,99960.69
2022-10-11T18:26:46.652Z,99967.69
2022-10-11T18:29:15.874Z,99964.38
2022-10-11T18:31:45.298Z,99960.22
2022-10-11T18:34:15.899Z,99965.41
2022-10-11T18:36:46.243Z,99970.75
2022-10-11T18:39:16.188Z,99962.66
2022-10-11T18:41:45.341Z,99969.56
2022-10-11T18:44:16.716Z,99967.06
2022-10-11T18:47:10.961Z,99961.91
2022-10-11T18:50:00.793Z,99961.84
2022-10-11T18:52:31.072Z,99962.59
2022-10-11T18:55:02.793Z,99966.13
2022-10-11T18:57:32.676Z,99966.69
2022-10-11T19:00:07.383Z,99967.75
2022-10-11T19:02:41.094Z,99968.72
2022-10-11T19:05:12.334Z,99964.97
2022-10-11T19:07:43.751Z,99966.72
2022-10-11T19:10:12.310Z,99971.97
2022-10-11T19:12:41.732Z,99973.63
2022-10-11T19:15:12.595Z,99970.91
2022-10-11T19:17:41.410Z,99969.06
2022-10-11T19:20:13.285Z,99973.41
2022-10-11T19:22:43.565Z,99979.59
2022-10-11T19:25:12.102Z,99975.22
2022-10-11T19:27:40.698Z,99981.41
2022-10-11T19:30:10.256Z,99981.31
2022-10-11T19:32:38.732Z,99983.81
2022-10-11T19:35:08.964Z,99979.75
2022-10-11T19:37:37.415Z,99982.09
2022-10-11T19:40:09.188Z,99981.16
2022-10-11T19:42:37.599Z,99979.59
2022-10-11T19:45:07.767Z,99975.91
2022-10-11T19:47:36.400Z,99983.28
2022-10-11T19:50:05.344Z,99977.22
2022-10-11T19:52:34.707Z,99969.94
2022-10-11T19:55:03.283Z,99972.41
2022-10-11T19:57:34.527Z,99980.06
2022-10-11T20:00:03.090Z,99979.00
2022-10-11T20:02:34.626Z,99975.38
2022-10-11T20:05:03.718Z,99981.38
2022-10-11T20:07:32.708Z,99982.03
2022-10-11T20:10:01.441Z,99976.59
2022-10-11T20:12:30.365Z,99983.59
2022-10-11T20:15:00.979Z,99986.09
2022-10-11T20:17:43.744Z,99981.66
2022-10-11T20:20:12.343Z,99983.31
2022-10-11T20:22:41.208Z,99978.06
2022-10-11T20:25:10.641Z,99984.34
2022-10-11T20:27:42.636Z,99983.47
2022-10-11T20:30:14.819Z,99984.91
2022-10-11T20:32:43.523Z,99982.97
2022-10-11T20:35:12.098Z,99981.09
2022-10-11T20:37:40.779Z,99979.31
2022-10-11T20:40:12.273Z,99975.69
2022-10-11T20:42:40.956Z,99984.44
2022-10-11T20:45:12.692Z,99987.97
2022-10-11T20:47:41.687Z,99979.19
2022-10-11T20:50:12.476Z,99980.09
2022-10-11T20:52:41.387Z,99977.44
2022-10-11T20:55:10.379Z,99977.34
2022-10-11T20:57:39.003Z,99981.69
2022-10-11T21:00:09.314Z,99983.53
2022-10-11T21:02:39.047Z,99983.53
2022-10-11T21:05:08.605Z,99981.00
2022-10-11T21:07:37.235Z,99987.09
2022-10-11T21:10:06.160Z,99986.25
2022-10-11T21:12:35.499Z,99981.84
2022-10-11T21:15:04.248Z,99986.38
2022-10-11T21:17:32.901Z,99987.19
2022-10-11T21:20:05.985Z,99987.19
2022-10-11T21:22:35.629Z,99984.53
2022-10-11T21:25:05.080Z,99984.53
2022-10-11T21:27:34.275Z,99982.84
2022-10-11T21:30:03.343Z,99982.25
2022-10-11T21:32:32.148Z,99979.59
2022-10-11T21:35:03.441Z,99981.22
2022-10-11T21:37:32.522Z,99974.31
2022-10-11T21:40:01.336Z,99976.97
2022-10-11T21:42:30.070Z,99980.56
2022-10-11T21:44:59.334Z,99980.56
2022-10-11T21:47:27.719Z,99978.91
2022-10-11T21:49:56.345Z,99972.66
2022-10-11T21:52:26.184Z,99976.19
2022-10-11T21:54:57.441Z,99977.06
2022-10-11T21:57:25.795Z,99972.56
2022-10-11T21:59:54.645Z,99981.38
2022-10-11T22:02:23.388Z,99982.34
2022-10-11T22:04:53.409Z,99978.13
2022-10-11T22:07:21.883Z,99981.16
2022-10-11T22:09:52.466Z,99978.50
2022-10-11T22:12:20.926Z,99977.69
2022-10-11T22:14:49.538Z,99975.56
2022-10-11T22:17:18.060Z,99974.47
2022-10-11T22:19:46.874Z,99980.53
2022-10-11T22:22:15.880Z,99981.44
2022-10-11T22:24:45.004Z,99985.84
2022-10-11T22:27:14.931Z,99987.72
2022-10-11T22:29:43.673Z,99990.38
2022-10-11T22:32:12.123Z,99984.34
2022-10-11T22:34:42.462Z,99980.91
2022-10-11T22:37:11.233Z,99981.94
2022-10-11T22:39:39.675Z,99983.72
2022-10-11T22:42:08.058Z,99981.13
